sensor_id;sensor_type;location;lat;lon;timestamp;P1;durP1;ratioP1;P2;durP2;ratioP2
69569;SDS011;56781;42.292;23.146;2023-09-19T00:00:49;9.32;;;4.72;;
69569;SDS011;56781;42.292;23.146;2023-09-19T00:03:16;11.60;;;4.75;;
69569;SDS011;56781;42.292;23.146;2023-09-19T00:05:43;8.48;;;5.30;;
69569;SDS011;56781;42.292;23.146;2023-09-19T00:08:12;8.33;;;4.57;;
69569;SDS011;56781;42.292;23.146;2023-09-19T00:10:42;7.68;;;4.30;;
69569;SDS011;56781;42.292;23.146;2023-09-19T00:13:10;8.65;;;4.55;;
69569;SDS011;56781;42.292;23.146;2023-09-19T00:15:43;9.35;;;4.78;;
69569;SDS011;56781;42.292;23.146;2023-09-19T00:18:18;8.48;;;4.97;;
69569;SDS011;56781;42.292;23.146;2023-09-19T00:20:48;8.13;;;4.30;;
69569;SDS011;56781;42.292;23.146;2023-09-19T00:23:16;9.50;;;5.18;;
69569;SDS011;56781;42.292;23.146;2023-09-19T00:25:44;9.50;;;5.07;;
69569;SDS011;56781;42.292;23.146;2023-09-19T00:28:12;11.07;;;5.00;;
69569;SDS011;56781;42.292;23.146;2023-09-19T00:30:42;8.65;;;4.80;;
69569;SDS011;56781;42.292;23.146;2023-09-19T00:33:10;7.83;;;4.97;;
69569;SDS011;56781;42.292;23.146;2023-09-19T00:35:46;9.05;;;4.53;;
69569;SDS011;56781;42.292;23.146;2023-09-19T00:38:18;10.18;;;5.10;;
69569;SDS011;56781;42.292;23.146;2023-09-19T00:40:51;9.20;;;4.97;;
69569;SDS011;56781;42.292;23.146;2023-09-19T00:43:18;8.55;;;5.20;;
69569;SDS011;56781;42.292;23.146;2023-09-19T00:45:50;10.17;;;5.37;;
69569;SDS011;56781;42.292;23.146;2023-09-19T00:48:23;8.60;;;5.25;;
69569;SDS011;56781;42.292;23.146;2023-09-19T00:50:54;10.27;;;4.93;;
69569;SDS011;56781;42.292;23.146;2023-09-19T00:53:24;9.43;;;5.00;;
69569;SDS011;56781;42.292;23.146;2023-09-19T00:55:54;8.23;;;4.82;;
69569;SDS011;56781;42.292;23.146;2023-09-19T00:58:22;8.43;;;5.23;;
69569;SDS011;56781;42.292;23.146;2023-09-19T01:00:50;9.45;;;5.10;;
69569;SDS011;56781;42.292;23.146;2023-09-19T01:03:19;8.32;;;5.03;;
69569;SDS011;56781;42.292;23.146;2023-09-19T01:05:48;8.27;;;4.85;;
69569;SDS011;56781;42.292;23.146;2023-09-19T01:08:16;10.00;;;5.70;;
69569;SDS011;56781;42.292;23.146;2023-09-19T01:10:52;9.97;;;5.20;;
69569;SDS011;56781;42.292;23.146;2023-09-19T01:13:31;8.68;;;4.95;;
69569;SDS011;56781;42.292;23.146;2023-09-19T01:18:46;8.23;;;4.60;;
69569;SDS011;56781;42.292;23.146;2023-09-19T01:24:20;10.33;;;5.17;;
69569;SDS011;56781;42.292;23.146;2023-09-19T01:29:48;7.82;;;4.75;;
69569;SDS011;56781;42.292;23.146;2023-09-19T01:32:17;7.03;;;4.57;;
69569;SDS011;56781;42.292;23.146;2023-09-19T01:34:50;7.40;;;4.85;;
69569;SDS011;56781;42.292;23.146;2023-09-19T01:37:20;9.40;;;4.70;;
69569;SDS011;56781;42.292;23.146;2023-09-19T01:39:56;8.10;;;4.53;;
69569;SDS011;56781;42.292;23.146;2023-09-19T01:42:35;9.25;;;5.03;;
69569;SDS011;56781;42.292;23.146;2023-09-19T01:45:11;8.35;;;4.93;;
69569;SDS011;56781;42.292;23.146;2023-09-19T01:47:48;9.10;;;4.75;;
69569;SDS011;56781;42.292;23.146;2023-09-19T01:50:31;7.77;;;4.87;;
69569;SDS011;56781;42.292;23.146;2023-09-19T01:53:10;9.73;;;4.95;;
69569;SDS011;56781;42.292;23.146;2023-09-19T01:55:46;8.43;;;5.25;;
69569;SDS011;56781;42.292;23.146;2023-09-19T01:58:17;8.40;;;5.28;;
69569;SDS011;56781;42.292;23.146;2023-09-19T02:00:49;10.40;;;5.53;;
69569;SDS011;56781;42.292;23.146;2023-09-19T02:03:20;8.57;;;5.30;;
69569;SDS011;56781;42.292;23.146;2023-09-19T02:05:52;9.55;;;5.60;;
69569;SDS011;56781;42.292;23.146;2023-09-19T02:08:21;11.90;;;5.40;;
69569;SDS011;56781;42.292;23.146;2023-09-19T02:10:52;7.88;;;4.90;;
69569;SDS011;56781;42.292;23.146;2023-09-19T02:13:20;9.40;;;5.45;;
69569;SDS011;56781;42.292;23.146;2023-09-19T02:15:49;13.53;;;5.40;;
69569;SDS011;56781;42.292;23.146;2023-09-19T02:18:16;12.80;;;5.05;;
69569;SDS011;56781;42.292;23.146;2023-09-19T02:20:43;10.45;;;5.28;;
69569;SDS011;56781;42.292;23.146;2023-09-19T02:23:12;8.27;;;4.82;;
69569;SDS011;56781;42.292;23.146;2023-09-19T02:25:42;9.45;;;5.25;;
69569;SDS011;56781;42.292;23.146;2023-09-19T02:28:10;9.63;;;5.10;;
69569;SDS011;56781;42.292;23.146;2023-09-19T02:30:38;8.55;;;4.75;;
69569;SDS011;56781;42.292;23.146;2023-09-19T02:33:05;9.82;;;5.40;;
69569;SDS011;56781;42.292;23.146;2023-09-19T02:35:33;8.57;;;4.95;;
69569;SDS011;56781;42.292;23.146;2023-09-19T02:38:02;9.70;;;5.05;;
69569;SDS011;56781;42.292;23.146;2023-09-19T02:40:33;9.37;;;5.00;;
69569;SDS011;56781;42.292;23.146;2023-09-19T02:43:03;9.75;;;5.00;;
69569;SDS011;56781;42.292;23.146;2023-09-19T02:45:31;9.13;;;4.97;;
69569;SDS011;56781;42.292;23.146;2023-09-19T02:47:58;9.52;;;5.22;;
69569;SDS011;56781;42.292;23.146;2023-09-19T02:50:26;11.07;;;5.03;;
69569;SDS011;56781;42.292;23.146;2023-09-19T02:52:53;8.57;;;4.83;;
69569;SDS011;56781;42.292;23.146;2023-09-19T02:55:20;11.52;;;5.38;;
69569;SDS011;56781;42.292;23.146;2023-09-19T02:57:49;10.45;;;5.47;;
69569;SDS011;56781;42.292;23.146;2023-09-19T03:00:17;11.32;;;5.55;;
69569;SDS011;56781;42.292;23.146;2023-09-19T03:02:49;8.80;;;5.45;;
69569;SDS011;56781;42.292;23.146;2023-09-19T03:05:21;10.17;;;5.47;;
69569;SDS011;56781;42.292;23.146;2023-09-19T03:07:50;8.98;;;5.15;;
69569;SDS011;56781;42.292;23.146;2023-09-19T03:10:17;8.75;;;5.43;;
69569;SDS011;56781;42.292;23.146;2023-09-19T03:12:48;8.75;;;5.05;;
69569;SDS011;56781;42.292;23.146;2023-09-19T03:15:16;9.35;;;5.05;;
69569;SDS011;56781;42.292;23.146;2023-09-19T03:17:45;9.33;;;4.93;;
69569;SDS011;56781;42.292;23.146;2023-09-19T03:20:18;10.65;;;4.90;;
69569;SDS011;56781;42.292;23.146;2023-09-19T03:22:47;9.20;;;5.20;;
69569;SDS011;56781;42.292;23.146;2023-09-19T03:25:15;10.88;;;4.95;;
69569;SDS011;56781;42.292;23.146;2023-09-19T03:27:44;10.38;;;5.25;;
69569;SDS011;56781;42.292;23.146;2023-09-19T03:30:11;10.50;;;4.43;;
69569;SDS011;56781;42.292;23.146;2023-09-19T03:32:44;11.30;;;5.35;;
69569;SDS011;56781;42.292;23.146;2023-09-19T03:35:17;11.35;;;5.38;;
69569;SDS011;56781;42.292;23.146;2023-09-19T03:37:45;14.52;;;5.45;;
69569;SDS011;56781;42.292;23.146;2023-09-19T03:40:12;10.00;;;5.10;;
69569;SDS011;56781;42.292;23.146;2023-09-19T03:42:40;9.10;;;4.93;;
69569;SDS011;56781;42.292;23.146;2023-09-19T03:45:08;9.45;;;5.22;;
69569;SDS011;56781;42.292;23.146;2023-09-19T03:47:39;11.60;;;6.45;;
69569;SDS011;56781;42.292;23.146;2023-09-19T03:50:07;12.60;;;6.50;;
69569;SDS011;56781;42.292;23.146;2023-09-19T03:52:37;10.60;;;6.05;;
69569;SDS011;56781;42.292;23.146;2023-09-19T03:55:05;13.50;;;6.30;;
69569;SDS011;56781;42.292;23.146;2023-09-19T03:57:32;13.35;;;5.75;;
69569;SDS011;56781;42.292;23.146;2023-09-19T04:00:02;12.98;;;6.60;;
69569;SDS011;56781;42.292;23.146;2023-09-19T04:02:38;17.65;;;6.60;;
69569;SDS011;56781;42.292;23.146;2023-09-19T04:05:06;10.60;;;6.53;;
69569;SDS011;56781;42.292;23.146;2023-09-19T04:07:34;10.83;;;5.57;;
69569;SDS011;56781;42.292;23.146;2023-09-19T04:10:02;10.13;;;5.20;;
69569;SDS011;56781;42.292;23.146;2023-09-19T04:12:29;11.52;;;6.03;;
69569;SDS011;56781;42.292;23.146;2023-09-19T04:14:57;12.27;;;6.78;;
69569;SDS011;56781;42.292;23.146;2023-09-19T04:17:24;11.40;;;6.40;;
69569;SDS011;56781;42.292;23.146;2023-09-19T04:19:51;8.40;;;5.13;;
69569;SDS011;56781;42.292;23.146;2023-09-19T04:22:20;11.50;;;5.70;;
69569;SDS011;56781;42.292;23.146;2023-09-19T04:24:47;11.05;;;5.80;;
69569;SDS011;56781;42.292;23.146;2023-09-19T04:27:14;10.73;;;5.60;;
69569;SDS011;56781;42.292;23.146;2023-09-19T04:29:42;12.48;;;6.60;;
69569;SDS011;56781;42.292;23.146;2023-09-19T04:32:09;14.10;;;6.47;;
69569;SDS011;56781;42.292;23.146;2023-09-19T04:34:36;13.68;;;6.30;;
69569;SDS011;56781;42.292;23.146;2023-09-19T04:37:05;13.77;;;7.53;;
69569;SDS011;56781;42.292;23.146;2023-09-19T04:39:32;13.85;;;7.47;;
69569;SDS011;56781;42.292;23.146;2023-09-19T04:42:00;14.65;;;7.65;;
69569;SDS011;56781;42.292;23.146;2023-09-19T04:44:27;11.30;;;6.70;;
69569;SDS011;56781;42.292;23.146;2023-09-19T04:46:55;16.05;;;6.68;;
69569;SDS011;56781;42.292;23.146;2023-09-19T04:49:22;17.98;;;6.63;;
69569;SDS011;56781;42.292;23.146;2023-09-19T04:51:49;12.52;;;6.07;;
69569;SDS011;56781;42.292;23.146;2023-09-19T04:54:17;14.10;;;6.22;;
69569;SDS011;56781;42.292;23.146;2023-09-19T04:56:44;11.37;;;5.70;;
69569;SDS011;56781;42.292;23.146;2023-09-19T04:59:12;20.15;;;5.80;;
69569;SDS011;56781;42.292;23.146;2023-09-19T05:01:39;13.10;;;6.15;;
69569;SDS011;56781;42.292;23.146;2023-09-19T05:04:06;13.73;;;5.85;;
69569;SDS011;56781;42.292;23.146;2023-09-19T05:06:34;12.25;;;6.50;;
69569;SDS011;56781;42.292;23.146;2023-09-19T05:09:02;12.57;;;6.87;;
69569;SDS011;56781;42.292;23.146;2023-09-19T05:11:32;13.18;;;6.38;;
69569;SDS011;56781;42.292;23.146;2023-09-19T05:14:00;15.32;;;7.07;;
69569;SDS011;56781;42.292;23.146;2023-09-19T05:31:37;11.67;;;6.43;;
69569;SDS011;56781;42.292;23.146;2023-09-19T05:34:07;15.65;;;7.10;;
69569;SDS011;56781;42.292;23.146;2023-09-19T05:36:36;14.90;;;6.85;;
69569;SDS011;56781;42.292;23.146;2023-09-19T05:39:03;13.70;;;6.00;;
69569;SDS011;56781;42.292;23.146;2023-09-19T05:41:30;13.85;;;6.65;;
69569;SDS011;56781;42.292;23.146;2023-09-19T05:43:58;14.03;;;6.40;;
69569;SDS011;56781;42.292;23.146;2023-09-19T05:46:29;12.50;;;6.95;;
69569;SDS011;56781;42.292;23.146;2023-09-19T05:48:56;15.65;;;6.68;;
69569;SDS011;56781;42.292;23.146;2023-09-19T05:51:24;12.35;;;6.38;;
69569;SDS011;56781;42.292;23.146;2023-09-19T05:53:54;14.70;;;6.45;;
69569;SDS011;56781;42.292;23.146;2023-09-19T05:56:21;9.23;;;6.17;;
69569;SDS011;56781;42.292;23.146;2023-09-19T05:58:48;11.93;;;6.47;;
69569;SDS011;56781;42.292;23.146;2023-09-19T06:01:18;12.15;;;6.63;;
69569;SDS011;56781;42.292;23.146;2023-09-19T06:03:46;14.50;;;5.90;;
69569;SDS011;56781;42.292;23.146;2023-09-19T06:06:13;10.77;;;6.35;;
69569;SDS011;56781;42.292;23.146;2023-09-19T06:08:41;17.37;;;6.23;;
69569;SDS011;56781;42.292;23.146;2023-09-19T06:11:11;9.60;;;6.05;;
69569;SDS011;56781;42.292;23.146;2023-09-19T06:13:38;10.05;;;6.07;;
69569;SDS011;56781;42.292;23.146;2023-09-19T06:16:06;10.70;;;5.88;;
69569;SDS011;56781;42.292;23.146;2023-09-19T06:18:33;10.57;;;6.18;;
69569;SDS011;56781;42.292;23.146;2023-09-19T06:21:00;11.93;;;6.10;;
69569;SDS011;56781;42.292;23.146;2023-09-19T06:23:31;9.68;;;5.90;;
69569;SDS011;56781;42.292;23.146;2023-09-19T06:25:59;10.85;;;5.90;;
69569;SDS011;56781;42.292;23.146;2023-09-19T06:28:26;11.18;;;6.28;;
69569;SDS011;56781;42.292;23.146;2023-09-19T06:30:54;8.30;;;5.65;;
69569;SDS011;56781;42.292;23.146;2023-09-19T06:33:22;9.13;;;5.88;;
69569;SDS011;56781;42.292;23.146;2023-09-19T06:35:49;11.75;;;6.35;;
69569;SDS011;56781;42.292;23.146;2023-09-19T06:38:19;9.93;;;5.90;;
69569;SDS011;56781;42.292;23.146;2023-09-19T06:40:46;9.20;;;6.13;;
69569;SDS011;56781;42.292;23.146;2023-09-19T06:43:13;10.15;;;6.00;;
69569;SDS011;56781;42.292;23.146;2023-09-19T06:45:41;10.70;;;6.28;;
69569;SDS011;56781;42.292;23.146;2023-09-19T06:48:09;10.05;;;6.22;;
69569;SDS011;56781;42.292;23.146;2023-09-19T06:50:37;9.10;;;5.68;;
69569;SDS011;56781;42.292;23.146;2023-09-19T06:53:05;9.32;;;5.22;;
69569;SDS011;56781;42.292;23.146;2023-09-19T06:55:33;9.52;;;5.72;;
69569;SDS011;56781;42.292;23.146;2023-09-19T06:58:00;9.38;;;5.38;;
69569;SDS011;56781;42.292;23.146;2023-09-19T07:00:28;9.25;;;5.63;;
69569;SDS011;56781;42.292;23.146;2023-09-19T07:02:58;11.05;;;6.10;;
69569;SDS011;56781;42.292;23.146;2023-09-19T07:05:31;11.13;;;6.57;;
69569;SDS011;56781;42.292;23.146;2023-09-19T07:07:59;10.77;;;6.80;;
69569;SDS011;56781;42.292;23.146;2023-09-19T07:10:27;12.27;;;7.20;;
69569;SDS011;56781;42.292;23.146;2023-09-19T07:13:02;10.20;;;6.28;;
69569;SDS011;56781;42.292;23.146;2023-09-19T07:15:32;10.73;;;6.50;;
69569;SDS011;56781;42.292;23.146;2023-09-19T07:18:06;10.57;;;6.32;;
69569;SDS011;56781;42.292;23.146;2023-09-19T07:20:33;12.70;;;6.35;;
69569;SDS011;56781;42.292;23.146;2023-09-19T07:23:01;10.88;;;6.53;;
69569;SDS011;56781;42.292;23.146;2023-09-19T07:25:28;11.85;;;6.55;;
69569;SDS011;56781;42.292;23.146;2023-09-19T07:27:56;11.18;;;6.15;;
69569;SDS011;56781;42.292;23.146;2023-09-19T07:30:27;13.38;;;6.25;;
69569;SDS011;56781;42.292;23.146;2023-09-19T07:32:54;14.68;;;6.78;;
69569;SDS011;56781;42.292;23.146;2023-09-19T07:35:22;12.35;;;7.13;;
69569;SDS011;56781;42.292;23.146;2023-09-19T07:37:49;13.85;;;7.13;;
69569;SDS011;56781;42.292;23.146;2023-09-19T07:40:18;14.25;;;7.35;;
69569;SDS011;56781;42.292;23.146;2023-09-19T07:42:47;19.70;;;7.75;;
69569;SDS011;56781;42.292;23.146;2023-09-19T07:45:15;15.80;;;8.57;;
69569;SDS011;56781;42.292;23.146;2023-09-19T07:47:46;20.92;;;7.93;;
69569;SDS011;56781;42.292;23.146;2023-09-19T07:50:14;15.90;;;7.40;;
69569;SDS011;56781;42.292;23.146;2023-09-19T07:52:43;17.17;;;7.22;;
69569;SDS011;56781;42.292;23.146;2023-09-19T07:55:11;14.75;;;7.95;;
69569;SDS011;56781;42.292;23.146;2023-09-19T07:57:43;15.43;;;7.10;;
69569;SDS011;56781;42.292;23.146;2023-09-19T08:00:10;14.57;;;7.20;;
69569;SDS011;56781;42.292;23.146;2023-09-19T08:02:38;12.50;;;6.50;;
69569;SDS011;56781;42.292;23.146;2023-09-19T08:05:07;12.63;;;6.70;;
69569;SDS011;56781;42.292;23.146;2023-09-19T08:07:40;15.77;;;6.90;;
69569;SDS011;56781;42.292;23.146;2023-09-19T08:10:09;13.02;;;7.18;;
69569;SDS011;56781;42.292;23.146;2023-09-19T08:12:42;11.70;;;6.70;;
69569;SDS011;56781;42.292;23.146;2023-09-19T08:15:17;15.20;;;6.75;;
69569;SDS011;56781;42.292;23.146;2023-09-19T08:17:48;11.90;;;6.45;;
69569;SDS011;56781;42.292;23.146;2023-09-19T08:20:17;14.75;;;7.25;;
69569;SDS011;56781;42.292;23.146;2023-09-19T08:22:49;12.05;;;6.72;;
69569;SDS011;56781;42.292;23.146;2023-09-19T08:25:19;15.63;;;6.97;;
69569;SDS011;56781;42.292;23.146;2023-09-19T08:27:47;14.25;;;6.63;;
69569;SDS011;56781;42.292;23.146;2023-09-19T08:30:16;11.70;;;6.18;;
69569;SDS011;56781;42.292;23.146;2023-09-19T08:32:44;17.35;;;6.60;;
69569;SDS011;56781;42.292;23.146;2023-09-19T08:35:12;17.83;;;7.47;;
69569;SDS011;56781;42.292;23.146;2023-09-19T08:37:41;19.05;;;7.50;;
69569;SDS011;56781;42.292;23.146;2023-09-19T08:40:09;14.30;;;6.97;;
69569;SDS011;56781;42.292;23.146;2023-09-19T08:42:55;13.75;;;6.63;;
69569;SDS011;56781;42.292;23.146;2023-09-19T08:45:24;12.40;;;6.18;;
69569;SDS011;56781;42.292;23.146;2023-09-19T08:50:53;19.10;;;7.60;;
69569;SDS011;56781;42.292;23.146;2023-09-19T08:56:31;19.38;;;8.45;;
69569;SDS011;56781;42.292;23.146;2023-09-19T08:59:02;13.10;;;7.93;;
69569;SDS011;56781;42.292;23.146;2023-09-19T09:01:31;17.85;;;7.53;;
69569;SDS011;56781;42.292;23.146;2023-09-19T09:03:59;14.45;;;6.90;;
69569;SDS011;56781;42.292;23.146;2023-09-19T09:06:28;14.50;;;7.07;;
69569;SDS011;56781;42.292;23.146;2023-09-19T09:08:56;15.48;;;7.40;;
69569;SDS011;56781;42.292;23.146;2023-09-19T09:11:24;16.38;;;8.02;;
69569;SDS011;56781;42.292;23.146;2023-09-19T09:13:54;13.90;;;7.63;;
69569;SDS011;56781;42.292;23.146;2023-09-19T09:16:22;13.35;;;7.18;;
69569;SDS011;56781;42.292;23.146;2023-09-19T09:18:52;16.60;;;6.88;;
69569;SDS011;56781;42.292;23.146;2023-09-19T09:21:21;13.27;;;6.93;;
69569;SDS011;56781;42.292;23.146;2023-09-19T09:23:51;15.60;;;7.10;;
69569;SDS011;56781;42.292;23.146;2023-09-19T09:29:05;14.35;;;6.80;;
69569;SDS011;56781;42.292;23.146;2023-09-19T09:31:33;14.38;;;7.10;;
69569;SDS011;56781;42.292;23.146;2023-09-19T09:34:00;14.38;;;6.88;;
69569;SDS011;56781;42.292;23.146;2023-09-19T09:36:38;13.68;;;6.80;;
69569;SDS011;56781;42.292;23.146;2023-09-19T09:39:08;12.15;;;6.72;;
69569;SDS011;56781;42.292;23.146;2023-09-19T09:41:45;11.40;;;6.50;;
69569;SDS011;56781;42.292;23.146;2023-09-19T09:44:15;14.57;;;6.97;;
69569;SDS011;56781;42.292;23.146;2023-09-19T09:46:45;12.60;;;6.80;;
69569;SDS011;56781;42.292;23.146;2023-09-19T09:49:23;12.63;;;6.60;;
69569;SDS011;56781;42.292;23.146;2023-09-19T09:52:03;10.95;;;6.75;;
69569;SDS011;56781;42.292;23.146;2023-09-19T09:55:00;10.75;;;6.55;;
69569;SDS011;56781;42.292;23.146;2023-09-19T09:57:32;16.77;;;6.97;;
69569;SDS011;56781;42.292;23.146;2023-09-19T10:00:00;12.15;;;6.25;;
69569;SDS011;56781;42.292;23.146;2023-09-19T10:02:47;11.40;;;6.13;;
69569;SDS011;56781;42.292;23.146;2023-09-19T10:05:15;11.45;;;6.55;;
69569;SDS011;56781;42.292;23.146;2023-09-19T10:07:49;10.60;;;6.13;;
69569;SDS011;56781;42.292;23.146;2023-09-19T10:10:32;11.32;;;7.07;;
69569;SDS011;56781;42.292;23.146;2023-09-19T10:13:06;11.20;;;6.60;;
69569;SDS011;56781;42.292;23.146;2023-09-19T10:15:39;11.82;;;6.72;;
69569;SDS011;56781;42.292;23.146;2023-09-19T10:18:12;16.02;;;7.43;;
69569;SDS011;56781;42.292;23.146;2023-09-19T10:20:45;12.07;;;6.75;;
69569;SDS011;56781;42.292;23.146;2023-09-19T10:23:12;12.50;;;7.43;;
69569;SDS011;56781;42.292;23.146;2023-09-19T10:25:47;12.75;;;7.05;;
69569;SDS011;56781;42.292;23.146;2023-09-19T10:28:17;14.50;;;6.90;;
69569;SDS011;56781;42.292;23.146;2023-09-19T10:30:51;14.73;;;7.18;;
69569;SDS011;56781;42.292;23.146;2023-09-19T10:33:20;14.60;;;7.65;;
69569;SDS011;56781;42.292;23.146;2023-09-19T10:35:56;12.32;;;7.82;;
69569;SDS011;56781;42.292;23.146;2023-09-19T10:38:26;12.98;;;7.30;;
69569;SDS011;56781;42.292;23.146;2023-09-19T10:41:02;14.57;;;8.18;;
69569;SDS011;56781;42.292;23.146;2023-09-19T10:43:32;12.85;;;7.05;;
69569;SDS011;56781;42.292;23.146;2023-09-19T10:46:03;12.55;;;7.20;;
69569;SDS011;56781;42.292;23.146;2023-09-19T10:48:34;10.23;;;6.57;;
69569;SDS011;56781;42.292;23.146;2023-09-19T10:51:09;10.90;;;6.88;;
69569;SDS011;56781;42.292;23.146;2023-09-19T10:53:55;11.57;;;6.70;;
69569;SDS011;56781;42.292;23.146;2023-09-19T10:59:11;9.75;;;6.70;;
69569;SDS011;56781;42.292;23.146;2023-09-19T11:01:52;13.90;;;6.90;;
69569;SDS011;56781;42.292;23.146;2023-09-19T11:04:31;11.07;;;6.80;;
69569;SDS011;56781;42.292;23.146;2023-09-19T11:07:09;10.18;;;6.35;;
69569;SDS011;56781;42.292;23.146;2023-09-19T11:14:53;9.18;;;6.22;;
69569;SDS011;56781;42.292;23.146;2023-09-19T11:25:44;15.02;;;7.20;;
69569;SDS011;56781;42.292;23.146;2023-09-19T11:30:51;21.95;;;9.00;;
69569;SDS011;56781;42.292;23.146;2023-09-19T11:33:27;14.68;;;7.32;;
69569;SDS011;56781;42.292;23.146;2023-09-19T11:36:04;14.80;;;6.30;;
69569;SDS011;56781;42.292;23.146;2023-09-19T11:46:53;11.90;;;7.03;;
69569;SDS011;56781;42.292;23.146;2023-09-19T11:49:25;11.23;;;6.55;;
69569;SDS011;56781;42.292;23.146;2023-09-19T11:51:59;11.00;;;6.40;;
69569;SDS011;56781;42.292;23.146;2023-09-19T11:54:38;11.25;;;7.07;;
69569;SDS011;56781;42.292;23.146;2023-09-19T11:57:09;11.25;;;7.05;;
69569;SDS011;56781;42.292;23.146;2023-09-19T11:59:38;11.60;;;6.60;;
69569;SDS011;56781;42.292;23.146;2023-09-19T12:02:06;22.13;;;7.00;;
69569;SDS011;56781;42.292;23.146;2023-09-19T12:04:36;14.40;;;6.80;;
69569;SDS011;56781;42.292;23.146;2023-09-19T12:09:46;11.32;;;6.65;;
69569;SDS011;56781;42.292;23.146;2023-09-19T12:12:24;9.60;;;6.70;;
69569;SDS011;56781;42.292;23.146;2023-09-19T12:14:54;10.80;;;6.60;;
69569;SDS011;56781;42.292;23.146;2023-09-19T12:17:38;11.73;;;6.63;;
69569;SDS011;56781;42.292;23.146;2023-09-19T12:20:09;11.50;;;6.93;;
69569;SDS011;56781;42.292;23.146;2023-09-19T12:22:43;10.43;;;6.40;;
69569;SDS011;56781;42.292;23.146;2023-09-19T12:25:13;9.55;;;6.40;;
69569;SDS011;56781;42.292;23.146;2023-09-19T12:27:46;10.80;;;6.25;;
69569;SDS011;56781;42.292;23.146;2023-09-19T12:30:16;13.52;;;6.88;;
69569;SDS011;56781;42.292;23.146;2023-09-19T12:32:53;8.52;;;5.72;;
69569;SDS011;56781;42.292;23.146;2023-09-19T12:35:29;8.48;;;6.38;;
69569;SDS011;56781;42.292;23.146;2023-09-19T12:38:02;10.32;;;6.47;;
69569;SDS011;56781;42.292;23.146;2023-09-19T12:40:30;10.25;;;6.63;;
69569;SDS011;56781;42.292;23.146;2023-09-19T12:43:00;10.20;;;6.30;;
69569;SDS011;56781;42.292;23.146;2023-09-19T12:45:31;12.40;;;6.03;;
69569;SDS011;56781;42.292;23.146;2023-09-19T12:51:04;9.82;;;6.18;;
69569;SDS011;56781;42.292;23.146;2023-09-19T12:53:39;12.98;;;6.97;;
69569;SDS011;56781;42.292;23.146;2023-09-19T12:56:11;12.75;;;6.95;;
69569;SDS011;56781;42.292;23.146;2023-09-19T12:58:56;12.82;;;6.13;;
69569;SDS011;56781;42.292;23.146;2023-09-19T13:01:29;12.35;;;6.47;;
69569;SDS011;56781;42.292;23.146;2023-09-19T13:06:48;11.48;;;6.85;;
69569;SDS011;56781;42.292;23.146;2023-09-19T13:09:22;10.27;;;6.32;;
69569;SDS011;56781;42.292;23.146;2023-09-19T13:12:02;11.98;;;6.47;;
69569;SDS011;56781;42.292;23.146;2023-09-19T13:14:31;12.30;;;6.93;;
69569;SDS011;56781;42.292;23.146;2023-09-19T13:17:00;11.85;;;6.25;;
69569;SDS011;56781;42.292;23.146;2023-09-19T13:19:38;10.85;;;6.88;;
69569;SDS011;56781;42.292;23.146;2023-09-19T13:25:17;10.02;;;6.63;;
69569;SDS011;56781;42.292;23.146;2023-09-19T13:27:55;14.82;;;7.40;;
69569;SDS011;56781;42.292;23.146;2023-09-19T13:30:24;11.40;;;6.53;;
69569;SDS011;56781;42.292;23.146;2023-09-19T13:32:53;12.65;;;7.25;;
69569;SDS011;56781;42.292;23.146;2023-09-19T13:35:34;10.48;;;6.13;;
69569;SDS011;56781;42.292;23.146;2023-09-19T13:38:02;10.68;;;5.78;;
69569;SDS011;56781;42.292;23.146;2023-09-19T13:40:29;14.18;;;6.30;;
69569;SDS011;56781;42.292;23.146;2023-09-19T13:42:57;11.30;;;6.30;;
69569;SDS011;56781;42.292;23.146;2023-09-19T13:45:24;10.13;;;6.40;;
69569;SDS011;56781;42.292;23.146;2023-09-19T13:47:53;13.43;;;6.43;;
69569;SDS011;56781;42.292;23.146;2023-09-19T13:50:20;10.57;;;6.60;;
69569;SDS011;56781;42.292;23.146;2023-09-19T13:52:51;11.30;;;6.00;;
69569;SDS011;56781;42.292;23.146;2023-09-19T13:55:20;10.60;;;6.35;;
69569;SDS011;56781;42.292;23.146;2023-09-19T13:57:47;12.73;;;6.82;;
69569;SDS011;56781;42.292;23.146;2023-09-19T14:00:21;10.80;;;6.63;;
69569;SDS011;56781;42.292;23.146;2023-09-19T14:02:49;10.27;;;6.32;;
69569;SDS011;56781;42.292;23.146;2023-09-19T14:05:18;10.25;;;5.72;;
69569;SDS011;56781;42.292;23.146;2023-09-19T14:07:47;10.10;;;6.03;;
69569;SDS011;56781;42.292;23.146;2023-09-19T14:10:15;9.30;;;6.43;;
69569;SDS011;56781;42.292;23.146;2023-09-19T14:12:44;12.57;;;6.55;;
69569;SDS011;56781;42.292;23.146;2023-09-19T14:15:12;10.02;;;6.55;;
69569;SDS011;56781;42.292;23.146;2023-09-19T14:17:40;11.65;;;6.85;;
69569;SDS011;56781;42.292;23.146;2023-09-19T14:20:12;10.65;;;6.10;;
69569;SDS011;56781;42.292;23.146;2023-09-19T14:22:42;7.93;;;5.85;;
69569;SDS011;56781;42.292;23.146;2023-09-19T14:25:09;9.45;;;6.03;;
69569;SDS011;56781;42.292;23.146;2023-09-19T14:27:36;8.35;;;6.00;;
69569;SDS011;56781;42.292;23.146;2023-09-19T14:30:04;9.55;;;5.85;;
69569;SDS011;56781;42.292;23.146;2023-09-19T14:32:32;11.10;;;6.28;;
69569;SDS011;56781;42.292;23.146;2023-09-19T14:34:59;11.05;;;6.32;;
69569;SDS011;56781;42.292;23.146;2023-09-19T14:37:27;11.68;;;6.47;;
69569;SDS011;56781;42.292;23.146;2023-09-19T14:39:54;10.27;;;6.88;;
69569;SDS011;56781;42.292;23.146;2023-09-19T14:42:22;13.57;;;6.80;;
69569;SDS011;56781;42.292;23.146;2023-09-19T14:44:49;9.32;;;6.35;;
69569;SDS011;56781;42.292;23.146;2023-09-19T14:47:16;11.80;;;7.00;;
69569;SDS011;56781;42.292;23.146;2023-09-19T14:49:44;11.80;;;7.22;;
69569;SDS011;56781;42.292;23.146;2023-09-19T14:52:11;13.88;;;6.28;;
69569;SDS011;56781;42.292;23.146;2023-09-19T14:54:42;12.55;;;6.93;;
69569;SDS011;56781;42.292;23.146;2023-09-19T14:57:09;13.07;;;6.80;;
69569;SDS011;56781;42.292;23.146;2023-09-19T14:59:37;9.98;;;6.80;;
69569;SDS011;56781;42.292;23.146;2023-09-19T15:02:04;11.98;;;6.70;;
69569;SDS011;56781;42.292;23.146;2023-09-19T15:04:32;11.95;;;7.20;;
69569;SDS011;56781;42.292;23.146;2023-09-19T15:07:00;12.48;;;6.63;;
69569;SDS011;56781;42.292;23.146;2023-09-19T15:09:29;10.18;;;7.18;;
69569;SDS011;56781;42.292;23.146;2023-09-19T15:11:59;13.10;;;7.60;;
69569;SDS011;56781;42.292;23.146;2023-09-19T15:14:26;9.95;;;7.32;;
69569;SDS011;56781;42.292;23.146;2023-09-19T15:16:53;13.80;;;7.88;;
69569;SDS011;56781;42.292;23.146;2023-09-19T15:19:20;11.32;;;7.25;;
69569;SDS011;56781;42.292;23.146;2023-09-19T15:21:49;12.32;;;7.15;;
69569;SDS011;56781;42.292;23.146;2023-09-19T15:24:16;10.75;;;7.55;;
69569;SDS011;56781;42.292;23.146;2023-09-19T15:26:44;15.13;;;7.80;;
69569;SDS011;56781;42.292;23.146;2023-09-19T15:29:12;12.02;;;7.43;;
69569;SDS011;56781;42.292;23.146;2023-09-19T15:31:40;14.55;;;7.57;;
69569;SDS011;56781;42.292;23.146;2023-09-19T15:34:07;14.77;;;7.45;;
69569;SDS011;56781;42.292;23.146;2023-09-19T15:36:35;13.40;;;7.85;;
69569;SDS011;56781;42.292;23.146;2023-09-19T15:39:05;17.92;;;8.70;;
69569;SDS011;56781;42.292;23.146;2023-09-19T15:41:36;14.63;;;7.80;;
69569;SDS011;56781;42.292;23.146;2023-09-19T15:44:07;13.23;;;7.13;;
69569;SDS011;56781;42.292;23.146;2023-09-19T15:46:45;12.63;;;7.03;;
69569;SDS011;56781;42.292;23.146;2023-09-19T15:49:13;16.35;;;7.68;;
69569;SDS011;56781;42.292;23.146;2023-09-19T15:51:41;13.77;;;7.40;;
69569;SDS011;56781;42.292;23.146;2023-09-19T15:54:11;17.13;;;7.43;;